sensor_id;sensor_type;location;lat;lon;timestamp;P1;durP1;ratioP1;P2;durP2;ratioP2
11703;SDS011;5908;51.354;7.458;2023-06-22T00:00:32;10.65;;;8.00;;
11703;SDS011;5908;51.354;7.458;2023-06-22T00:02:58;8.60;;;7.80;;
11703;SDS011;5908;51.354;7.458;2023-06-22T00:05:26;10.80;;;7.63;;
11703;SDS011;5908;51.354;7.458;2023-06-22T00:07:53;9.82;;;8.20;;
11703;SDS011;5908;51.354;7.458;2023-06-22T00:10:20;8.60;;;7.60;;
11703;SDS011;5908;51.354;7.458;2023-06-22T00:12:47;8.23;;;7.45;;
11703;SDS011;5908;51.354;7.458;2023-06-22T00:15:13;9.43;;;8.00;;
11703;SDS011;5908;51.354;7.458;2023-06-22T00:17:40;8.50;;;7.28;;
11703;SDS011;5908;51.354;7.458;2023-06-22T00:20:07;8.88;;;7.75;;
11703;SDS011;5908;51.354;7.458;2023-06-22T00:22:36;12.05;;;9.57;;
11703;SDS011;5908;51.354;7.458;2023-06-22T00:25:04;7.50;;;6.80;;
11703;SDS011;5908;51.354;7.458;2023-06-22T00:27:32;9.23;;;6.90;;
11703;SDS011;5908;51.354;7.458;2023-06-22T00:29:59;7.60;;;6.90;;
11703;SDS011;5908;51.354;7.458;2023-06-22T00:32:26;7.70;;;6.93;;
11703;SDS011;5908;51.354;7.458;2023-06-22T00:34:52;6.88;;;6.18;;
11703;SDS011;5908;51.354;7.458;2023-06-22T00:37:19;7.78;;;6.82;;
11703;SDS011;5908;51.354;7.458;2023-06-22T00:39:52;8.32;;;7.53;;
11703;SDS011;5908;51.354;7.458;2023-06-22T00:42:18;7.45;;;6.80;;
11703;SDS011;5908;51.354;7.458;2023-06-22T00:44:45;8.50;;;7.50;;
11703;SDS011;5908;51.354;7.458;2023-06-22T00:47:13;7.43;;;6.72;;
11703;SDS011;5908;51.354;7.458;2023-06-22T00:49:41;7.20;;;6.50;;
11703;SDS011;5908;51.354;7.458;2023-06-22T00:52:09;7.33;;;6.63;;
11703;SDS011;5908;51.354;7.458;2023-06-22T00:54:39;7.47;;;6.05;;
11703;SDS011;5908;51.354;7.458;2023-06-22T00:57:11;6.82;;;6.20;;
11703;SDS011;5908;51.354;7.458;2023-06-22T00:59:41;8.27;;;7.43;;
11703;SDS011;5908;51.354;7.458;2023-06-22T01:02:08;7.97;;;7.28;;
11703;SDS011;5908;51.354;7.458;2023-06-22T01:04:36;6.97;;;6.38;;
11703;SDS011;5908;51.354;7.458;2023-06-22T01:07:09;7.47;;;6.40;;
11703;SDS011;5908;51.354;7.458;2023-06-22T01:09:44;7.40;;;6.60;;
11703;SDS011;5908;51.354;7.458;2023-06-22T01:12:17;7.65;;;6.95;;
11703;SDS011;5908;51.354;7.458;2023-06-22T01:14:47;7.53;;;6.82;;
11703;SDS011;5908;51.354;7.458;2023-06-22T01:17:17;8.15;;;7.38;;
11703;SDS011;5908;51.354;7.458;2023-06-22T01:19:46;7.28;;;6.63;;
11703;SDS011;5908;51.354;7.458;2023-06-22T01:22:20;9.25;;;8.35;;
11703;SDS011;5908;51.354;7.458;2023-06-22T01:24:51;8.05;;;6.93;;
11703;SDS011;5908;51.354;7.458;2023-06-22T01:27:28;7.82;;;7.10;;
11703;SDS011;5908;51.354;7.458;2023-06-22T01:30:04;7.50;;;6.80;;
11703;SDS011;5908;51.354;7.458;2023-06-22T01:32:33;7.45;;;6.75;;
11703;SDS011;5908;51.354;7.458;2023-06-22T01:35:02;7.88;;;7.18;;
11703;SDS011;5908;51.354;7.458;2023-06-22T01:37:31;7.40;;;6.60;;
11703;SDS011;5908;51.354;7.458;2023-06-22T01:39:59;8.38;;;7.07;;
11703;SDS011;5908;51.354;7.458;2023-06-22T01:42:29;7.93;;;7.13;;
11703;SDS011;5908;51.354;7.458;2023-06-22T01:44:57;7.68;;;6.97;;
11703;SDS011;5908;51.354;7.458;2023-06-22T01:47:26;7.60;;;6.88;;
11703;SDS011;5908;51.354;7.458;2023-06-22T01:49:53;7.93;;;6.90;;
11703;SDS011;5908;51.354;7.458;2023-06-22T01:52:21;8.82;;;7.32;;
11703;SDS011;5908;51.354;7.458;2023-06-22T01:54:48;7.88;;;7.07;;
11703;SDS011;5908;51.354;7.458;2023-06-22T01:57:14;7.63;;;6.93;;
11703;SDS011;5908;51.354;7.458;2023-06-22T01:59:43;7.72;;;6.90;;
11703;SDS011;5908;51.354;7.458;2023-06-22T02:02:16;8.30;;;7.40;;
11703;SDS011;5908;51.354;7.458;2023-06-22T02:04:54;12.50;;;11.30;;
11703;SDS011;5908;51.354;7.458;2023-06-22T02:07:26;8.27;;;7.47;;
11703;SDS011;5908;51.354;7.458;2023-06-22T02:09:58;7.68;;;6.93;;
11703;SDS011;5908;51.354;7.458;2023-06-22T02:12:27;7.20;;;6.60;;
11703;SDS011;5908;51.354;7.458;2023-06-22T02:14:55;8.02;;;7.32;;
11703;SDS011;5908;51.354;7.458;2023-06-22T02:17:23;11.10;;;10.00;;
11703;SDS011;5908;51.354;7.458;2023-06-22T02:19:52;7.95;;;7.15;;
11703;SDS011;5908;51.354;7.458;2023-06-22T02:22:19;7.63;;;6.90;;
11703;SDS011;5908;51.354;7.458;2023-06-22T02:24:46;8.43;;;7.53;;
11703;SDS011;5908;51.354;7.458;2023-06-22T02:27:12;9.10;;;8.20;;
11703;SDS011;5908;51.354;7.458;2023-06-22T02:29:39;9.27;;;8.37;;
11703;SDS011;5908;51.354;7.458;2023-06-22T02:32:06;11.65;;;10.45;;
11703;SDS011;5908;51.354;7.458;2023-06-22T02:34:33;9.95;;;9.02;;
11703;SDS011;5908;51.354;7.458;2023-06-22T02:37:03;11.77;;;10.60;;
11703;SDS011;5908;51.354;7.458;2023-06-22T02:39:30;8.25;;;7.45;;
11703;SDS011;5908;51.354;7.458;2023-06-22T02:41:57;7.90;;;6.50;;
11703;SDS011;5908;51.354;7.458;2023-06-22T02:44:23;8.55;;;7.75;;
11703;SDS011;5908;51.354;7.458;2023-06-22T02:46:50;8.68;;;7.88;;
11703;SDS011;5908;51.354;7.458;2023-06-22T02:49:17;8.68;;;7.70;;
11703;SDS011;5908;51.354;7.458;2023-06-22T02:51:45;8.27;;;7.47;;
11703;SDS011;5908;51.354;7.458;2023-06-22T02:54:14;10.80;;;9.55;;
11703;SDS011;5908;51.354;7.458;2023-06-22T02:56:41;8.40;;;7.60;;
11703;SDS011;5908;51.354;7.458;2023-06-22T02:59:08;9.68;;;8.68;;
11703;SDS011;5908;51.354;7.458;2023-06-22T03:01:36;10.13;;;9.13;;
11703;SDS011;5908;51.354;7.458;2023-06-22T03:04:05;7.82;;;7.03;;
11703;SDS011;5908;51.354;7.458;2023-06-22T03:06:32;10.47;;;9.43;;
11703;SDS011;5908;51.354;7.458;2023-06-22T03:08:59;9.30;;;7.40;;
11703;SDS011;5908;51.354;7.458;2023-06-22T03:11:28;12.55;;;11.25;;
11703;SDS011;5908;51.354;7.458;2023-06-22T03:13:54;8.60;;;7.70;;
11703;SDS011;5908;51.354;7.458;2023-06-22T03:16:21;7.18;;;6.47;;
11703;SDS011;5908;51.354;7.458;2023-06-22T03:18:48;8.30;;;7.50;;
11703;SDS011;5908;51.354;7.458;2023-06-22T03:21:15;9.68;;;8.77;;
11703;SDS011;5908;51.354;7.458;2023-06-22T03:23:42;8.60;;;7.78;;
11703;SDS011;5908;51.354;7.458;2023-06-22T03:26:09;12.50;;;11.30;;
11703;SDS011;5908;51.354;7.458;2023-06-22T03:28:38;9.38;;;8.45;;
11703;SDS011;5908;51.354;7.458;2023-06-22T03:31:04;10.07;;;9.07;;
11703;SDS011;5908;51.354;7.458;2023-06-22T03:33:32;10.10;;;7.93;;
11703;SDS011;5908;51.354;7.458;2023-06-22T03:35:59;8.75;;;7.95;;
11703;SDS011;5908;51.354;7.458;2023-06-22T03:38:26;8.38;;;7.63;;
11703;SDS011;5908;51.354;7.458;2023-06-22T03:40:52;10.10;;;9.13;;
11703;SDS011;5908;51.354;7.458;2023-06-22T03:43:19;9.10;;;8.23;;
11703;SDS011;5908;51.354;7.458;2023-06-22T03:45:47;10.02;;;9.02;;
11703;SDS011;5908;51.354;7.458;2023-06-22T03:48:14;9.13;;;8.23;;
11703;SDS011;5908;51.354;7.458;2023-06-22T03:50:40;9.45;;;8.50;;
11703;SDS011;5908;51.354;7.458;2023-06-22T03:53:09;10.45;;;9.43;;
11703;SDS011;5908;51.354;7.458;2023-06-22T03:55:36;9.73;;;8.73;;
11703;SDS011;5908;51.354;7.458;2023-06-22T03:58:02;10.43;;;9.43;;
11703;SDS011;5908;51.354;7.458;2023-06-22T04:00:30;10.18;;;8.38;;
11703;SDS011;5908;51.354;7.458;2023-06-22T04:02:59;10.27;;;9.27;;
11703;SDS011;5908;51.354;7.458;2023-06-22T04:05:25;10.25;;;9.25;;
11703;SDS011;5908;51.354;7.458;2023-06-22T04:07:52;9.63;;;8.68;;
11703;SDS011;5908;51.354;7.458;2023-06-22T04:10:19;11.03;;;9.93;;
11703;SDS011;5908;51.354;7.458;2023-06-22T04:12:46;9.70;;;8.80;;
11703;SDS011;5908;51.354;7.458;2023-06-22T04:15:13;10.95;;;9.93;;
11703;SDS011;5908;51.354;7.458;2023-06-22T04:17:40;11.00;;;9.90;;
11703;SDS011;5908;51.354;7.458;2023-06-22T04:20:08;12.07;;;10.93;;
11703;SDS011;5908;51.354;7.458;2023-06-22T04:22:35;11.15;;;10.15;;
11703;SDS011;5908;51.354;7.458;2023-06-22T04:25:02;13.00;;;11.70;;
11703;SDS011;5908;51.354;7.458;2023-06-22T04:27:29;10.82;;;9.75;;
11703;SDS011;5908;51.354;7.458;2023-06-22T04:29:56;12.82;;;11.73;;
11703;SDS011;5908;51.354;7.458;2023-06-22T04:32:25;11.07;;;10.07;;
11703;SDS011;5908;51.354;7.458;2023-06-22T04:34:52;12.68;;;11.30;;
11703;SDS011;5908;51.354;7.458;2023-06-22T04:37:20;12.20;;;10.93;;
11703;SDS011;5908;51.354;7.458;2023-06-22T04:39:48;10.83;;;9.73;;
11703;SDS011;5908;51.354;7.458;2023-06-22T04:42:15;10.27;;;9.05;;
11703;SDS011;5908;51.354;7.458;2023-06-22T04:44:42;11.73;;;10.50;;
11703;SDS011;5908;51.354;7.458;2023-06-22T04:47:08;11.48;;;10.27;;
11703;SDS011;5908;51.354;7.458;2023-06-22T04:49:35;11.32;;;10.13;;
11703;SDS011;5908;51.354;7.458;2023-06-22T04:52:03;10.48;;;9.30;;
11703;SDS011;5908;51.354;7.458;2023-06-22T04:54:33;12.40;;;10.00;;
11703;SDS011;5908;51.354;7.458;2023-06-22T04:57:00;10.40;;;9.30;;
11703;SDS011;5908;51.354;7.458;2023-06-22T04:59:28;11.53;;;9.90;;
11703;SDS011;5908;51.354;7.458;2023-06-22T05:01:56;12.23;;;10.05;;
11703;SDS011;5908;51.354;7.458;2023-06-22T05:04:24;11.43;;;9.57;;
11703;SDS011;5908;51.354;7.458;2023-06-22T05:06:52;12.02;;;9.50;;
11703;SDS011;5908;51.354;7.458;2023-06-22T05:09:20;10.63;;;9.48;;
11703;SDS011;5908;51.354;7.458;2023-06-22T05:11:48;11.07;;;9.53;;
11703;SDS011;5908;51.354;7.458;2023-06-22T05:14:15;11.10;;;9.20;;
11703;SDS011;5908;51.354;7.458;2023-06-22T05:16:42;11.52;;;10.07;;
11703;SDS011;5908;51.354;7.458;2023-06-22T05:19:10;10.63;;;9.52;;
11703;SDS011;5908;51.354;7.458;2023-06-22T05:21:36;11.30;;;9.77;;
11703;SDS011;5908;51.354;7.458;2023-06-22T05:24:04;12.68;;;9.27;;
11703;SDS011;5908;51.354;7.458;2023-06-22T05:26:31;13.90;;;9.37;;
11703;SDS011;5908;51.354;7.458;2023-06-22T05:29:01;15.87;;;10.23;;
11703;SDS011;5908;51.354;7.458;2023-06-22T05:31:29;19.45;;;10.23;;
11703;SDS011;5908;51.354;7.458;2023-06-22T05:33:56;20.00;;;13.35;;
11703;SDS011;5908;51.354;7.458;2023-06-22T05:36:22;18.37;;;9.90;;
11703;SDS011;5908;51.354;7.458;2023-06-22T05:38:50;23.15;;;11.00;;
11703;SDS011;5908;51.354;7.458;2023-06-22T05:41:17;18.02;;;10.43;;
11703;SDS011;5908;51.354;7.458;2023-06-22T05:43:44;16.23;;;10.18;;
11703;SDS011;5908;51.354;7.458;2023-06-22T05:46:12;21.08;;;10.10;;
11703;SDS011;5908;51.354;7.458;2023-06-22T05:48:39;15.13;;;9.60;;
11703;SDS011;5908;51.354;7.458;2023-06-22T05:51:06;17.70;;;9.57;;
11703;SDS011;5908;51.354;7.458;2023-06-22T05:53:32;17.75;;;9.85;;
11703;SDS011;5908;51.354;7.458;2023-06-22T05:55:59;15.77;;;9.75;;
11703;SDS011;5908;51.354;7.458;2023-06-22T05:58:26;15.30;;;10.18;;
11703;SDS011;5908;51.354;7.458;2023-06-22T06:00:53;16.77;;;9.57;;
11703;SDS011;5908;51.354;7.458;2023-06-22T06:03:21;14.27;;;9.93;;
11703;SDS011;5908;51.354;7.458;2023-06-22T06:05:48;15.75;;;10.13;;
11703;SDS011;5908;51.354;7.458;2023-06-22T06:08:15;13.82;;;10.13;;
11703;SDS011;5908;51.354;7.458;2023-06-22T06:20:31;11.57;;;9.52;;
11703;SDS011;5908;51.354;7.458;2023-06-22T06:22:58;12.23;;;10.10;;
11703;SDS011;5908;51.354;7.458;2023-06-22T06:27:51;14.13;;;9.70;;
11703;SDS011;5908;51.354;7.458;2023-06-22T06:32:46;17.38;;;9.65;;
11703;SDS011;5908;51.354;7.458;2023-06-22T06:35:14;14.27;;;9.75;;
11703;SDS011;5908;51.354;7.458;2023-06-22T06:37:44;15.95;;;10.30;;
11703;SDS011;5908;51.354;7.458;2023-06-22T06:40:12;13.15;;;10.23;;
11703;SDS011;5908;51.354;7.458;2023-06-22T06:42:40;15.30;;;12.10;;
11703;SDS011;5908;51.354;7.458;2023-06-22T06:45:10;12.57;;;11.27;;
11703;SDS011;5908;51.354;7.458;2023-06-22T06:47:38;27.10;;;20.95;;
11703;SDS011;5908;51.354;7.458;2023-06-22T06:50:05;14.40;;;11.50;;
11703;SDS011;5908;51.354;7.458;2023-06-22T06:52:32;13.70;;;11.50;;
11703;SDS011;5908;51.354;7.458;2023-06-22T06:55:01;18.83;;;11.73;;
11703;SDS011;5908;51.354;7.458;2023-06-22T06:57:29;13.80;;;12.27;;
11703;SDS011;5908;51.354;7.458;2023-06-22T06:59:56;13.90;;;12.52;;
11703;SDS011;5908;51.354;7.458;2023-06-22T07:02:23;14.55;;;12.80;;
11703;SDS011;5908;51.354;7.458;2023-06-22T07:07:16;15.60;;;12.10;;
11703;SDS011;5908;51.354;7.458;2023-06-22T07:14:38;14.15;;;11.68;;
11703;SDS011;5908;51.354;7.458;2023-06-22T07:26:52;15.50;;;13.27;;
11703;SDS011;5908;51.354;7.458;2023-06-22T07:29:20;16.90;;;12.93;;
11703;SDS011;5908;51.354;7.458;2023-06-22T07:31:47;16.15;;;11.32;;
11703;SDS011;5908;51.354;7.458;2023-06-22T07:34:16;14.60;;;11.73;;
11703;SDS011;5908;51.354;7.458;2023-06-22T07:36:43;13.27;;;11.80;;
11703;SDS011;5908;51.354;7.458;2023-06-22T07:39:11;12.95;;;11.60;;
11703;SDS011;5908;51.354;7.458;2023-06-22T07:41:38;13.32;;;11.93;;
11703;SDS011;5908;51.354;7.458;2023-06-22T07:44:05;15.73;;;12.05;;
11703;SDS011;5908;51.354;7.458;2023-06-22T07:49:01;15.30;;;13.57;;
11703;SDS011;5908;51.354;7.458;2023-06-22T07:53:55;15.35;;;13.55;;
11703;SDS011;5908;51.354;7.458;2023-06-22T07:56:21;13.82;;;12.50;;
11703;SDS011;5908;51.354;7.458;2023-06-22T07:58:48;15.15;;;13.38;;
11703;SDS011;5908;51.354;7.458;2023-06-22T08:01:15;14.40;;;12.93;;
11703;SDS011;5908;51.354;7.458;2023-06-22T08:03:47;13.95;;;12.48;;
11703;SDS011;5908;51.354;7.458;2023-06-22T08:06:14;14.32;;;12.48;;
11703;SDS011;5908;51.354;7.458;2023-06-22T08:08:41;15.30;;;12.30;;
11703;SDS011;5908;51.354;7.458;2023-06-22T08:11:08;14.25;;;12.80;;
11703;SDS011;5908;51.354;7.458;2023-06-22T08:13:35;16.77;;;15.10;;
11703;SDS011;5908;51.354;7.458;2023-06-22T08:16:02;15.35;;;13.23;;
11703;SDS011;5908;51.354;7.458;2023-06-22T08:18:32;14.45;;;12.85;;
11703;SDS011;5908;51.354;7.458;2023-06-22T08:21:00;13.85;;;12.45;;
11703;SDS011;5908;51.354;7.458;2023-06-22T08:23:27;15.55;;;13.77;;
11703;SDS011;5908;51.354;7.458;2023-06-22T08:25:54;14.52;;;13.02;;
11703;SDS011;5908;51.354;7.458;2023-06-22T08:28:21;16.05;;;12.63;;
11703;SDS011;5908;51.354;7.458;2023-06-22T08:30:48;14.82;;;13.32;;
11703;SDS011;5908;51.354;7.458;2023-06-22T08:33:15;15.10;;;13.52;;
11703;SDS011;5908;51.354;7.458;2023-06-22T08:35:42;14.95;;;13.45;;
11703;SDS011;5908;51.354;7.458;2023-06-22T08:38:11;14.82;;;13.38;;
11703;SDS011;5908;51.354;7.458;2023-06-22T08:40:40;20.48;;;18.27;;
11703;SDS011;5908;51.354;7.458;2023-06-22T08:43:07;21.23;;;18.95;;
11703;SDS011;5908;51.354;7.458;2023-06-22T08:45:34;29.20;;;26.23;;
11703;SDS011;5908;51.354;7.458;2023-06-22T08:48:00;24.42;;;21.95;;
11703;SDS011;5908;51.354;7.458;2023-06-22T08:50:27;14.48;;;12.57;;
11703;SDS011;5908;51.354;7.458;2023-06-22T08:52:54;45.08;;;40.20;;
11703;SDS011;5908;51.354;7.458;2023-06-22T08:55:22;16.10;;;14.43;;
11703;SDS011;5908;51.354;7.458;2023-06-22T08:57:49;13.93;;;12.52;;
11703;SDS011;5908;51.354;7.458;2023-06-22T09:00:16;15.75;;;14.25;;
11703;SDS011;5908;51.354;7.458;2023-06-22T09:02:45;14.38;;;12.88;;
11703;SDS011;5908;51.354;7.458;2023-06-22T09:05:12;13.38;;;12.07;;
11703;SDS011;5908;51.354;7.458;2023-06-22T09:07:40;16.02;;;14.40;;
11703;SDS011;5908;51.354;7.458;2023-06-22T09:10:07;16.15;;;14.55;;
11703;SDS011;5908;51.354;7.458;2023-06-22T09:12:35;13.82;;;12.43;;
11703;SDS011;5908;51.354;7.458;2023-06-22T09:15:03;16.35;;;14.95;;
11703;SDS011;5908;51.354;7.458;2023-06-22T09:17:32;14.25;;;13.02;;
11703;SDS011;5908;51.354;7.458;2023-06-22T09:19:59;15.48;;;13.90;;
11703;SDS011;5908;51.354;7.458;2023-06-22T09:22:26;14.88;;;13.48;;
11703;SDS011;5908;51.354;7.458;2023-06-22T09:24:54;14.82;;;13.43;;
11703;SDS011;5908;51.354;7.458;2023-06-22T09:27:21;14.57;;;13.15;;
11703;SDS011;5908;51.354;7.458;2023-06-22T09:29:49;11.93;;;10.73;;
11703;SDS011;5908;51.354;7.458;2023-06-22T09:32:16;11.55;;;10.30;;
11703;SDS011;5908;51.354;7.458;2023-06-22T09:34:43;11.25;;;10.05;;
11703;SDS011;5908;51.354;7.458;2023-06-22T09:37:10;10.98;;;9.57;;
11703;SDS011;5908;51.354;7.458;2023-06-22T09:39:37;12.52;;;9.95;;
11703;SDS011;5908;51.354;7.458;2023-06-22T09:42:04;11.13;;;10.02;;
11703;SDS011;5908;51.354;7.458;2023-06-22T09:44:31;10.88;;;9.77;;
11703;SDS011;5908;51.354;7.458;2023-06-22T09:46:59;9.40;;;8.40;;
11703;SDS011;5908;51.354;7.458;2023-06-22T09:49:26;9.35;;;8.45;;
11703;SDS011;5908;51.354;7.458;2023-06-22T09:51:53;11.45;;;9.20;;
11703;SDS011;5908;51.354;7.458;2023-06-22T09:54:20;10.77;;;9.77;;
11703;SDS011;5908;51.354;7.458;2023-06-22T09:56:47;11.52;;;9.50;;
11703;SDS011;5908;51.354;7.458;2023-06-22T09:59:14;10.13;;;9.13;;
11703;SDS011;5908;51.354;7.458;2023-06-22T10:01:41;11.05;;;9.90;;
11703;SDS011;5908;51.354;7.458;2023-06-22T10:04:09;11.35;;;9.90;;
11703;SDS011;5908;51.354;7.458;2023-06-22T10:06:36;11.25;;;10.20;;
11703;SDS011;5908;51.354;7.458;2023-06-22T10:09:05;12.43;;;10.43;;
11703;SDS011;5908;51.354;7.458;2023-06-22T10:11:33;12.65;;;9.45;;
11703;SDS011;5908;51.354;7.458;2023-06-22T10:14:00;11.60;;;10.45;;
11703;SDS011;5908;51.354;7.458;2023-06-22T10:16:30;11.65;;;10.45;;
11703;SDS011;5908;51.354;7.458;2023-06-22T10:18:57;12.60;;;11.30;;
11703;SDS011;5908;51.354;7.458;2023-06-22T10:21:25;12.52;;;11.30;;
11703;SDS011;5908;51.354;7.458;2023-06-22T10:23:53;11.95;;;10.60;;
11703;SDS011;5908;51.354;7.458;2023-06-22T10:26:20;12.60;;;11.30;;
11703;SDS011;5908;51.354;7.458;2023-06-22T10:28:47;11.70;;;10.63;;
11703;SDS011;5908;51.354;7.458;2023-06-22T10:31:14;12.38;;;11.00;;
11703;SDS011;5908;51.354;7.458;2023-06-22T10:33:41;11.20;;;10.10;;
11703;SDS011;5908;51.354;7.458;2023-06-22T10:36:09;11.02;;;9.93;;
11703;SDS011;5908;51.354;7.458;2023-06-22T10:38:37;11.60;;;10.60;;
11703;SDS011;5908;51.354;7.458;2023-06-22T10:41:04;10.93;;;9.93;;
11703;SDS011;5908;51.354;7.458;2023-06-22T10:43:31;11.20;;;10.10;;
11703;SDS011;5908;51.354;7.458;2023-06-22T10:45:57;12.75;;;11.48;;
11703;SDS011;5908;51.354;7.458;2023-06-22T10:48:24;12.55;;;11.23;;
11703;SDS011;5908;51.354;7.458;2023-06-22T10:50:51;11.90;;;10.68;;
11703;SDS011;5908;51.354;7.458;2023-06-22T10:53:18;12.90;;;11.65;;
11703;SDS011;5908;51.354;7.458;2023-06-22T10:55:46;12.55;;;11.43;;
11703;SDS011;5908;51.354;7.458;2023-06-22T10:58:13;13.05;;;11.63;;
11703;SDS011;5908;51.354;7.458;2023-06-22T11:00:40;12.90;;;11.60;;
11703;SDS011;5908;51.354;7.458;2023-06-22T11:03:07;13.07;;;11.77;;
11703;SDS011;5908;51.354;7.458;2023-06-22T11:05:34;17.38;;;12.43;;
11703;SDS011;5908;51.354;7.458;2023-06-22T11:08:00;16.08;;;14.48;;
11703;SDS011;5908;51.354;7.458;2023-06-22T11:10:27;15.07;;;13.00;;
11703;SDS011;5908;51.354;7.458;2023-06-22T11:12:55;15.02;;;13.00;;
11703;SDS011;5908;51.354;7.458;2023-06-22T11:15:23;14.10;;;12.13;;
11703;SDS011;5908;51.354;7.458;2023-06-22T11:17:49;15.20;;;13.70;;
11703;SDS011;5908;51.354;7.458;2023-06-22T11:20:16;15.23;;;13.70;;
11703;SDS011;5908;51.354;7.458;2023-06-22T11:22:43;20.58;;;15.13;;
11703;SDS011;5908;51.354;7.458;2023-06-22T11:25:10;21.08;;;18.85;;
11703;SDS011;5908;51.354;7.458;2023-06-22T11:27:37;31.47;;;28.43;;
11703;SDS011;5908;51.354;7.458;2023-06-22T11:30:06;19.10;;;17.10;;
11703;SDS011;5908;51.354;7.458;2023-06-22T11:32:34;20.08;;;18.15;;
11703;SDS011;5908;51.354;7.458;2023-06-22T11:35:01;21.58;;;19.58;;
11703;SDS011;5908;51.354;7.458;2023-06-22T11:37:28;22.42;;;20.13;;
11703;SDS011;5908;51.354;7.458;2023-06-22T11:39:54;23.73;;;21.42;;
11703;SDS011;5908;51.354;7.458;2023-06-22T11:42:21;25.23;;;22.52;;
11703;SDS011;5908;51.354;7.458;2023-06-22T11:44:50;32.60;;;27.02;;
11703;SDS011;5908;51.354;7.458;2023-06-22T11:47:18;27.02;;;24.10;;
11703;SDS011;5908;51.354;7.458;2023-06-22T11:49:45;32.22;;;25.63;;
11703;SDS011;5908;51.354;7.458;2023-06-22T11:52:12;41.78;;;30.95;;
11703;SDS011;5908;51.354;7.458;2023-06-22T11:54:38;27.45;;;23.13;;
11703;SDS011;5908;51.354;7.458;2023-06-22T11:57:05;41.92;;;28.55;;
11703;SDS011;5908;51.354;7.458;2023-06-22T11:59:32;36.40;;;29.52;;
11703;SDS011;5908;51.354;7.458;2023-06-22T12:01:59;48.08;;;33.47;;
11703;SDS011;5908;51.354;7.458;2023-06-22T12:04:27;51.42;;;31.08;;
11703;SDS011;5908;51.354;7.458;2023-06-22T12:06:54;54.53;;;35.30;;
11703;SDS011;5908;51.354;7.458;2023-06-22T12:09:20;44.17;;;29.35;;
11703;SDS011;5908;51.354;7.458;2023-06-22T12:11:47;83.25;;;39.65;;
11703;SDS011;5908;51.354;7.458;2023-06-22T12:14:14;109.18;;;42.13;;
11703;SDS011;5908;51.354;7.458;2023-06-22T12:19:09;72.88;;;43.00;;
11703;SDS011;5908;51.354;7.458;2023-06-22T12:21:38;62.20;;;46.20;;
11703;SDS011;5908;51.354;7.458;2023-06-22T12:24:05;133.57;;;46.50;;
11703;SDS011;5908;51.354;7.458;2023-06-22T12:26:32;82.97;;;39.83;;
11703;SDS011;5908;51.354;7.458;2023-06-22T12:28:59;88.13;;;41.05;;
11703;SDS011;5908;51.354;7.458;2023-06-22T12:31:26;73.85;;;36.65;;
11703;SDS011;5908;51.354;7.458;2023-06-22T12:33:53;101.13;;;48.20;;
11703;SDS011;5908;51.354;7.458;2023-06-22T12:36:20;62.63;;;40.42;;
11703;SDS011;5908;51.354;7.458;2023-06-22T12:38:48;157.25;;;62.08;;
11703;SDS011;5908;51.354;7.458;2023-06-22T12:41:14;73.32;;;41.85;;
11703;SDS011;5908;51.354;7.458;2023-06-22T12:43:41;68.57;;;41.72;;
11703;SDS011;5908;51.354;7.458;2023-06-22T12:46:08;81.97;;;59.88;;
11703;SDS011;5908;51.354;7.458;2023-06-22T12:48:35;54.78;;;37.50;;
11703;SDS011;5908;51.354;7.458;2023-06-22T12:51:06;49.30;;;37.08;;
11703;SDS011;5908;51.354;7.458;2023-06-22T12:53:33;53.88;;;41.00;;
11703;SDS011;5908;51.354;7.458;2023-06-22T12:56:01;46.75;;;37.63;;
11703;SDS011;5908;51.354;7.458;2023-06-22T12:58:29;45.03;;;35.05;;
11703;SDS011;5908;51.354;7.458;2023-06-22T13:00:55;39.67;;;31.90;;
11703;SDS011;5908;51.354;7.458;2023-06-22T13:03:22;36.92;;;28.63;;
11703;SDS011;5908;51.354;7.458;2023-06-22T13:05:50;37.20;;;32.80;;
11703;SDS011;5908;51.354;7.458;2023-06-22T13:08:17;32.40;;;27.98;;
11703;SDS011;5908;51.354;7.458;2023-06-22T13:10:44;39.03;;;34.95;;
11703;SDS011;5908;51.354;7.458;2023-06-22T13:13:12;29.70;;;24.10;;
11703;SDS011;5908;51.354;7.458;2023-06-22T13:15:39;26.50;;;23.00;;
11703;SDS011;5908;51.354;7.458;2023-06-22T13:18:05;27.45;;;24.45;;
11703;SDS011;5908;51.354;7.458;2023-06-22T13:20:32;38.47;;;34.38;;
11703;SDS011;5908;51.354;7.458;2023-06-22T13:22:59;19.98;;;17.50;;
11703;SDS011;5908;51.354;7.458;2023-06-22T13:25:26;24.95;;;22.33;;
11703;SDS011;5908;51.354;7.458;2023-06-22T13:27:53;19.40;;;17.50;;
11703;SDS011;5908;51.354;7.458;2023-06-22T13:30:21;17.00;;;15.20;;
11703;SDS011;5908;51.354;7.458;2023-06-22T13:32:47;17.38;;;15.57;;
11703;SDS011;5908;51.354;7.458;2023-06-22T13:35:14;19.67;;;17.75;;
11703;SDS011;5908;51.354;7.458;2023-06-22T13:37:41;19.20;;;17.25;;
11703;SDS011;5908;51.354;7.458;2023-06-22T13:40:08;19.63;;;17.60;;
11703;SDS011;5908;51.354;7.458;2023-06-22T13:42:35;20.13;;;18.05;;
11703;SDS011;5908;51.354;7.458;2023-06-22T13:45:02;18.73;;;16.75;;
11703;SDS011;5908;51.354;7.458;2023-06-22T13:47:30;18.48;;;16.67;;
11703;SDS011;5908;51.354;7.458;2023-06-22T13:49:57;15.55;;;14.05;;
11703;SDS011;5908;51.354;7.458;2023-06-22T13:52:24;15.55;;;13.98;;
11703;SDS011;5908;51.354;7.458;2023-06-22T13:54:51;15.27;;;13.82;;
11703;SDS011;5908;51.354;7.458;2023-06-22T13:57:18;16.67;;;14.98;;
11703;SDS011;5908;51.354;7.458;2023-06-22T13:59:45;16.17;;;14.68;;
11703;SDS011;5908;51.354;7.458;2023-06-22T14:02:12;15.68;;;14.10;;
11703;SDS011;5908;51.354;7.458;2023-06-22T14:04:40;17.45;;;15.85;;
11703;SDS011;5908;51.354;7.458;2023-06-22T14:07:06;14.43;;;13.02;;
11703;SDS011;5908;51.354;7.458;2023-06-22T14:09:33;12.30;;;11.13;;
11703;SDS011;5908;51.354;7.458;2023-06-22T14:12:02;15.13;;;13.60;;
11703;SDS011;5908;51.354;7.458;2023-06-22T14:14:30;13.90;;;12.45;;
11703;SDS011;5908;51.354;7.458;2023-06-22T14:16:57;13.50;;;12.20;;
11703;SDS011;5908;51.354;7.458;2023-06-22T14:19:23;13.77;;;12.38;;
11703;SDS011;5908;51.354;7.458;2023-06-22T14:21:51;12.73;;;11.43;;
11703;SDS011;5908;51.354;7.458;2023-06-22T14:24:18;13.93;;;12.63;;
11703;SDS011;5908;51.354;7.458;2023-06-22T14:26:45;9.80;;;8.90;;
11703;SDS011;5908;51.354;7.458;2023-06-22T14:29:12;10.65;;;9.65;;
11703;SDS011;5908;51.354;7.458;2023-06-22T14:31:38;10.30;;;9.30;;
11703;SDS011;5908;51.354;7.458;2023-06-22T14:34:05;9.57;;;8.68;;
11703;SDS011;5908;51.354;7.458;2023-06-22T14:36:32;9.23;;;8.32;;
11703;SDS011;5908;51.354;7.458;2023-06-22T14:39:01;10.60;;;9.60;;
11703;SDS011;5908;51.354;7.458;2023-06-22T14:41:28;10.00;;;9.10;;
11703;SDS011;5908;51.354;7.458;2023-06-22T14:43:55;10.48;;;9.50;;
11703;SDS011;5908;51.354;7.458;2023-06-22T14:46:23;10.80;;;9.70;;
11703;SDS011;5908;51.354;7.458;2023-06-22T14:48:49;14.02;;;12.68;;
11703;SDS011;5908;51.354;7.458;2023-06-22T14:51:16;11.05;;;10.05;;
11703;SDS011;5908;51.354;7.458;2023-06-22T14:53:43;10.02;;;9.10;;
11703;SDS011;5908;51.354;7.458;2023-06-22T14:56:12;11.98;;;10.63;;
11703;SDS011;5908;51.354;7.458;2023-06-22T14:58:40;12.38;;;11.18;;
11703;SDS011;5908;51.354;7.458;2023-06-22T15:01:10;13.07;;;11.82;;
11703;SDS011;5908;51.354;7.458;2023-06-22T15:03:37;13.98;;;12.48;;
11703;SDS011;5908;51.354;7.458;2023-06-22T15:06:04;12.95;;;11.80;;
11703;SDS011;5908;51.354;7.458;2023-06-22T15:08:31;12.82;;;11.63;;
11703;SDS011;5908;51.354;7.458;2023-06-22T15:10:58;13.63;;;12.30;;
11703;SDS011;5908;51.354;7.458;2023-06-22T15:13:27;13.85;;;12.65;;
11703;SDS011;5908;51.354;7.458;2023-06-22T15:15:57;14.02;;;12.73;;
11703;SDS011;5908;51.354;7.458;2023-06-22T15:18:24;15.00;;;13.52;;
11703;SDS011;5908;51.354;7.458;2023-06-22T15:20:51;14.25;;;12.88;;
11703;SDS011;5908;51.354;7.458;2023-06-22T15:23:18;13.50;;;12.18;;